Time;durP1;ratioP1;P1;durP2;ratioP2;P2;SDS_P1;SDS_P2;PMS_P1;PMS_P2;Temp;Humidity;BMP_temperature;BMP_pressure;BME280_temperature;BME280_humidity;BME280_pressure;Samples;Min_cycle;Max_cycle;Signal;HPM_P1;HPM_P2
2021/01/12 00:01:02;;;;;;;2.13;1.90;;;;;;;25.61;28.18;96693.94;4978887;28;20218;-69
2021/01/12 00:03:27;;;;;;;2.55;1.52;;;;;;;25.57;28.36;96685.38;4964448;28;20962;-68
2021/01/12 00:05:53;;;;;;;2.13;1.70;;;;;;;25.51;28.03;96675.19;4965776;28;20445;-68
2021/01/12 00:08:22;;;;;;;1.80;1.67;;;;;;;25.53;28.35;96669.84;4983629;28;20041;-70
2021/01/12 00:10:47;;;;;;;2.28;1.98;;;;;;;25.61;28.25;96677.31;4981608;28;20049;-69
2021/01/12 00:13:23;;;;;;;3.25;1.83;;;;;;;25.59;28.09;96673.97;4968568;28;20051;-69
2021/01/12 00:15:53;;;;;;;2.78;1.88;;;;;;;25.50;28.22;96647.25;4989920;28;20057;-69
2021/01/12 00:18:18;;;;;;;2.47;1.60;;;;;;;25.62;28.24;96663.31;4980155;28;20080;-70
2021/01/12 00:20:44;;;;;;;2.55;1.67;;;;;;;25.65;27.96;96657.88;4961688;28;20092;-69
2021/01/12 00:23:10;;;;;;;1.85;1.60;;;;;;;25.62;27.98;96664.13;4970775;28;20038;-69
2021/01/12 00:25:35;;;;;;;3.22;1.88;;;;;;;25.57;28.06;96653.91;4961073;28;20030;-69
2021/01/12 00:28:01;;;;;;;2.03;1.67;;;;;;;25.56;28.07;96644.31;4956107;28;20469;-70
2021/01/12 00:30:26;;;;;;;1.90;1.70;;;;;;;25.60;28.03;96649.41;4964034;28;20045;-68
2021/01/12 00:32:55;;;;;;;1.60;1.50;;;;;;;25.51;28.11;96632.38;4968570;28;20418;-68
2021/01/12 00:35:20;;;;;;;2.72;1.77;;;;;;;25.59;28.14;96642.47;4997960;28;20128;-69
2021/01/12 00:37:46;;;;;;;2.83;1.88;;;;;;;25.61;27.89;96635.34;4984751;28;20036;-68
2021/01/12 00:40:12;;;;;;;2.22;1.75;;;;;;;25.54;27.92;96625.16;4968233;28;20057;-69
2021/01/12 00:42:38;;;;;;;1.70;1.40;;;;;;;25.56;28.15;96620.69;5001973;28;20564;-69
2021/01/12 00:45:12;;;;;;;3.85;1.50;;;;;;;25.56;28.19;96620.69;4977725;28;20038;-70
2021/01/12 00:47:37;;;;;;;2.00;1.70;;;;;;;25.55;28.15;96616.34;5000968;28;20041;-69
2021/01/12 00:50:11;;;;;;;15.57;1.80;;;;;;;25.55;27.88;96616.34;4988870;28;20054;-69
2021/01/12 00:52:37;;;;;;;1.48;1.38;;;;;;;25.56;28.20;96617.25;4986347;28;20176;-69
2021/01/12 00:55:02;;;;;;;2.45;1.70;;;;;;;25.49;27.75;96595.72;4968734;28;20516;-70
2021/01/12 00:57:27;;;;;;;2.20;1.90;;;;;;;25.55;27.84;96602.41;4965875;28;20048;-70
2021/01/12 00:59:53;;;;;;;1.88;1.67;;;;;;;25.54;28.08;96598.06;4971082;28;20203;-69
2021/01/12 01:02:19;;;;;;;1.85;1.63;;;;;;;25.56;27.91;96612.81;4985115;28;20445;-69
2021/01/12 01:04:48;;;;;;;1.60;1.50;;;;;;;25.53;28.14;96609.50;4968238;28;20568;-69
2021/01/12 01:07:23;;;;;;;1.92;1.70;;;;;;;25.53;28.15;96618.22;4983844;28;20076;-69
2021/01/12 01:09:48;;;;;;;1.55;1.30;;;;;;;25.53;28.06;96612.97;5000320;28;20029;-69
2021/01/12 01:12:14;;;;;;;1.77;1.67;;;;;;;25.56;27.81;96609.38;4976747;28;20103;-69
2021/01/12 01:14:47;;;;;;;2.17;1.52;;;;;;;25.55;27.97;96616.34;4965544;28;20041;-68
2021/01/12 01:17:12;;;;;;;2.00;1.80;;;;;;;25.52;28.11;96613.88;4997273;28;20586;-68
2021/01/12 01:19:42;;;;;;;1.75;1.65;;;;;;;25.48;28.04;96607.16;4982298;28;20041;-68
2021/01/12 01:22:11;;;;;;;3.25;1.77;;;;;;;25.49;28.13;96611.47;5010829;28;20041;-69
2021/01/12 01:24:39;;;;;;;1.50;1.40;;;;;;;25.49;28.17;96616.69;4974814;28;20410;-69
2021/01/12 01:27:05;;;;;;;2.22;1.58;;;;;;;25.50;28.19;96618.38;4975263;28;20041;-69
2021/01/12 01:29:35;;;;;;;1.75;1.52;;;;;;;25.50;27.87;96621.00;4983356;28;20051;-69
2021/01/12 01:32:01;;;;;;;3.15;1.50;;;;;;;25.48;28.02;96624.66;4967466;28;20041;-69
2021/01/12 01:34:26;;;;;;;2.40;1.70;;;;;;;25.47;28.19;96623.78;4978101;28;20036;-69
2021/01/12 01:36:52;;;;;;;2.40;1.80;;;;;;;25.48;27.83;96617.63;4984850;28;20033;-69
2021/01/12 01:39:22;;;;;;;2.08;1.50;;;;;;;25.49;27.95;96621.09;4974580;28;20045;-69
2021/01/12 01:41:51;;;;;;;2.17;1.40;;;;;;;25.51;28.10;96624.50;4985056;28;20046;-67
2021/01/12 01:44:31;;;;;;;2.33;1.77;;;;;;;25.51;28.12;96622.69;4999475;28;20048;-67
2021/01/12 01:46:56;;;;;;;1.85;1.70;;;;;;;25.48;27.95;96614.16;4982057;28;20040;-68
2021/01/12 01:49:29;;;;;;;2.40;1.83;;;;;;;25.51;28.15;96616.63;4987637;28;20113;-69
2021/01/12 01:51:55;;;;;;;1.70;1.60;;;;;;;25.45;27.95;96610.75;4973090;28;20438;-69
2021/01/12 01:54:21;;;;;;;2.65;1.58;;;;;;;25.45;27.97;96604.69;4984123;28;20038;-67
2021/01/12 01:56:50;;;;;;;2.28;1.70;;;;;;;25.52;27.78;96610.44;4966210;28;20037;-68
2021/01/12 01:59:15;;;;;;;1.67;1.58;;;;;;;25.50;27.79;96607.91;4988404;28;20042;-69
2021/01/12 02:01:41;;;;;;;2.00;1.42;;;;;;;25.48;28.20;96594.03;4968085;28;20042;-69
2021/01/12 02:04:15;;;;;;;1.95;1.30;;;;;;;25.44;28.05;96587.25;4971419;28;20060;-69
2021/01/12 02:06:41;;;;;;;1.88;1.70;;;;;;;25.47;27.89;96592.31;5006083;28;20115;-69
2021/01/12 02:09:57;;;;;;;1.80;1.60;;;;;;;25.44;27.99;96582.00;4984241;28;20044;-69
2021/01/12 02:12:34;;;;;;;1.63;1.48;;;;;;;25.39;28.10;96578.75;4990274;28;20465;-69
2021/01/12 02:14:59;;;;;;;1.60;1.40;;;;;;;25.38;27.93;96563.97;4979735;28;20044;-68
2021/01/12 02:17:29;;;;;;;2.45;1.73;;;;;;;25.37;28.05;96575.41;4979733;28;20049;-69
2021/01/12 02:19:59;;;;;;;1.60;1.50;;;;;;;25.28;28.15;96540.88;4989622;28;20299;-69
2021/01/12 02:22:25;;;;;;;2.08;1.77;;;;;;;25.36;28.04;96552.72;4962513;28;20534;-69
2021/01/12 02:24:54;;;;;;;1.70;1.60;;;;;;;25.36;28.26;96542.22;4980744;28;20147;-69
2021/01/12 02:27:21;;;;;;;1.75;1.50;;;;;;;25.33;28.17;96542.41;4976924;28;20038;-69
2021/01/12 02:29:54;;;;;;;1.42;1.33;;;;;;;25.33;28.28;96542.41;4987247;28;20253;-69
2021/01/12 02:32:27;;;;;;;1.77;1.50;;;;;;;25.34;28.21;96539.69;4982404;28;20293;-69
2021/01/12 02:34:52;;;;;;;1.40;1.30;;;;;;;25.33;27.92;96538.00;4981948;28;20479;-69
2021/01/12 02:37:18;;;;;;;1.90;1.40;;;;;;;25.28;28.31;96530.38;4966424;28;20037;-69
2021/01/12 02:39:44;;;;;;;1.50;1.38;;;;;;;25.35;27.92;96540.56;4968622;28;20041;-69
2021/01/12 02:42:16;;;;;;;1.58;1.38;;;;;;;25.33;28.11;96537.16;4982919;28;20324;-68
2021/01/12 02:44:42;;;;;;;8.27;2.70;;;;;;;25.23;27.66;96514.06;4971018;28;20095;-69
2021/01/12 02:47:07;;;;;;;4.80;2.30;;;;;;;25.25;28.07;96520.03;4977079;28;20610;-69
2021/01/12 02:49:41;;;;;;;2.28;1.70;;;;;;;25.24;28.08;96507.88;4987321;28;20045;-69
2021/01/12 02:52:14;;;;;;;2.45;1.73;;;;;;;25.29;28.02;96518.94;4993509;28;20056;-69
2021/01/12 02:54:41;;;;;;;2.95;1.30;;;;;;;25.29;28.06;96516.31;4993561;28;20569;-69
2021/01/12 02:57:11;;;;;;;2.00;1.40;;;;;;;25.29;28.09;96515.50;4964431;28;20161;-68
2021/01/12 02:59:37;;;;;;;1.60;1.50;;;;;;;25.31;28.02;96518.88;4981427;28;20120;-69
2021/01/12 03:02:02;;;;;;;8.68;1.70;;;;;;;25.27;28.09;96502.47;4981523;28;20144;-69
2021/01/12 03:04:28;;;;;;;2.00;1.40;;;;;;;25.25;28.08;96496.44;4965918;28;20761;-69
2021/01/12 03:06:57;;;;;;;2.42;1.30;;;;;;;25.31;28.15;96498.75;4962479;28;20034;-69
2021/01/12 03:09:26;;;;;;;1.98;1.48;;;;;;;25.29;27.90;96484.03;4995549;28;20049;-69
2021/01/12 03:11:52;;;;;;;3.65;1.60;;;;;;;25.36;27.96;96487.16;4983354;28;20033;-69
2021/01/12 03:14:18;;;;;;;2.13;1.33;;;;;;;25.33;27.88;96484.69;4983123;28;20124;-69
2021/01/12 03:16:51;;;;;;;2.75;1.33;;;;;;;25.31;27.95;96483.00;4957636;28;20064;-68
2021/01/12 03:19:17;;;;;;;2.95;1.40;;;;;;;25.31;28.23;96480.38;4999775;28;20029;-68
2021/01/12 03:21:47;;;;;;;1.55;1.35;;;;;;;25.33;28.07;96469.81;4979180;28;20824;-68
2021/01/12 03:24:12;;;;;;;1.60;1.23;;;;;;;25.30;28.08;96462.09;4966687;28;20045;-69
2021/01/12 03:26:46;;;;;;;1.50;1.13;;;;;;;25.31;28.09;96455.94;4993324;28;20251;-69
2021/01/12 03:29:12;;;;;;;1.60;1.30;;;;;;;25.23;27.87;96453.75;4967269;28;20151;-69
2021/01/12 03:31:41;;;;;;;1.80;1.50;;;;;;;25.26;28.22;96458.81;4977971;28;20589;-69
2021/01/12 03:34:10;;;;;;;1.60;1.40;;;;;;;25.26;28.21;96461.44;4986283;28;20037;-68
2021/01/12 03:36:35;;;;;;;3.30;1.08;;;;;;;25.19;27.92;96444.34;4980562;28;20033;-69
2021/01/12 03:39:05;;;;;;;2.47;1.48;;;;;;;25.23;28.13;96448.50;5002061;28;20029;-69
2021/01/12 03:41:37;;;;;;;1.50;1.38;;;;;;;25.24;28.05;96444.94;4985957;28;20025;-69
2021/01/12 03:44:06;;;;;;;1.77;1.30;;;;;;;25.24;28.17;96439.69;4981355;28;20723;-68
2021/01/12 03:46:31;;;;;;;1.35;1.25;;;;;;;25.17;28.25;96430.50;4981001;28;20120;-69
2021/01/12 03:48:57;;;;;;;1.20;1.10;;;;;;;25.25;28.19;96440.53;4967389;28;20038;-69
2021/01/12 03:51:23;;;;;;;1.33;1.23;;;;;;;25.23;28.35;96427.50;4966486;28;20755;-68
2021/01/12 03:53:49;;;;;;;1.63;1.40;;;;;;;25.15;28.10;96416.63;4962846;28;20666;-69
2021/01/12 03:56:14;;;;;;;1.25;1.15;;;;;;;25.13;28.18;96405.38;4964446;28;20041;-69
2021/01/12 03:58:43;;;;;;;1.50;1.38;;;;;;;25.17;27.97;96412.97;5002765;28;20033;-69
2021/01/12 04:01:09;;;;;;;1.50;1.35;;;;;;;25.17;28.28;96417.38;4966785;28;20540;-69
2021/01/12 04:03:38;;;;;;;1.40;1.25;;;;;;;25.13;28.03;96397.50;4966956;28;20045;-68
2021/01/12 04:06:16;;;;;;;1.85;1.40;;;;;;;25.18;28.25;96403.34;4999714;28;20646;-69
2021/01/12 04:08:46;;;;;;;1.60;1.33;;;;;;;25.12;28.21;96395.81;4992842;28;20148;-69
2021/01/12 04:11:19;;;;;;;2.75;1.30;;;;;;;25.01;28.37;96376.28;5005320;28;20456;-69
2021/01/12 04:13:45;;;;;;;2.35;1.38;;;;;;;25.14;28.17;96389.53;4970747;28;20041;-69
2021/01/12 04:16:14;;;;;;;1.38;1.27;;;;;;;25.15;28.41;96388.63;4985898;28;20034;-69
2021/01/12 04:18:40;;;;;;;1.30;1.20;;;;;;;25.14;28.35;96386.09;4975478;28;20411;-70
2021/01/12 04:21:13;;;;;;;1.33;1.23;;;;;;;25.15;28.12;96377.28;4988332;28;20038;-69
2021/01/12 04:23:39;;;;;;;1.50;1.13;;;;;;;25.14;28.24;96375.59;4967998;28;20148;-67
2021/01/12 04:26:08;;;;;;;1.77;1.20;;;;;;;25.13;28.34;96369.50;4964663;28;20045;-68
2021/01/12 04:28:33;;;;;;;1.10;1.00;;;;;;;25.14;28.27;96365.09;4996625;28;20142;-68
2021/01/12 04:31:06;;;;;;;1.40;1.30;;;;;;;25.18;28.03;96361.38;4985142;28;20144;-69
2021/01/12 04:33:32;;;;;;;1.40;1.30;;;;;;;25.13;28.23;96358.19;4973407;28;20574;-69
2021/01/12 04:35:57;;;;;;;1.98;1.15;;;;;;;25.15;28.07;96351.91;4984957;28;20034;-69
2021/01/12 04:38:23;;;;;;;2.42;1.20;;;;;;;25.10;28.39;96363.59;4965978;28;20096;-67
2021/01/12 04:40:48;;;;;;;1.10;1.00;;;;;;;25.05;28.45;96345.50;4967145;28;20061;-68
2021/01/12 04:43:14;;;;;;;1.00;0.98;;;;;;;25.05;28.20;96346.34;4967460;28;20331;-69
2021/01/12 04:45:39;;;;;;;1.65;1.00;;;;;;;25.08;28.10;96340.09;4983066;28;20119;-68
2021/01/12 04:48:05;;;;;;;2.40;1.33;;;;;;;25.07;28.37;96343.66;4978351;28;20056;-68
2021/01/12 04:50:38;;;;;;;1.15;1.00;;;;;;;25.11;28.46;96334.66;4987465;28;20560;-68
2021/01/12 04:53:04;;;;;;;1.33;1.23;;;;;;;25.04;28.45;96325.47;4998248;28;20136;-68
2021/01/12 04:55:29;;;;;;;1.58;1.25;;;;;;;25.09;28.28;96326.03;4972829;28;20609;-68
2021/01/12 04:57:55;;;;;;;1.10;1.00;;;;;;;25.07;28.16;96327.06;4970980;28;20399;-68
2021/01/12 05:00:39;;;;;;;1.40;1.10;;;;;;;25.14;28.22;96333.66;4966085;28;20565;-68
2021/01/12 05:03:06;;;;;;;1.63;0.95;;;;;;;25.13;28.53;96329.34;5000294;28;20042;-68
2021/01/12 05:05:36;;;;;;;0.98;0.95;;;;;;;25.08;28.33;96318.25;5000161;28;20119;-70
2021/01/12 05:08:06;;;;;;;0.90;0.90;;;;;;;25.14;28.40;96329.22;4971873;28;20046;-68
2021/01/12 05:10:40;;;;;;;1.10;0.93;;;;;;;25.10;28.43;96333.00;4981779;28;20047;-69
2021/01/12 05:13:08;;;;;;;1.30;0.98;;;;;;;25.11;28.24;96328.56;4973012;28;20025;-69
2021/01/12 05:15:33;;;;;;;1.15;1.05;;;;;;;25.11;28.44;96331.19;4982431;28;20503;-68
2021/01/12 05:18:00;;;;;;;0.93;0.93;;;;;;;25.08;28.49;96326.97;4964687;28;20099;-68
2021/01/12 05:20:26;;;;;;;1.80;1.10;;;;;;;25.11;28.59;96325.94;4967086;28;20129;-68
2021/01/12 05:23:08;;;;;;;1.00;0.90;;;;;;;25.04;28.23;96313.22;4963712;28;20069;-68
2021/01/12 05:25:34;;;;;;;;;;;;;;;25.07;28.45;96311.31;4982815;28;20038;-68
2021/01/12 05:28:04;;;;;;;0.88;0.88;;;;;;;25.01;28.53;96307.28;4977692;28;19924;-69
2021/01/12 05:30:29;;;;;;;1.20;1.10;;;;;;;25.03;28.57;96303.66;4966948;28;20044;-71
2021/01/12 05:32:56;;;;;;;1.10;0.95;;;;;;;25.02;28.70;96307.19;4964077;28;20045;-70
2021/01/12 05:35:25;;;;;;;1.10;1.00;;;;;;;25.00;28.48;96306.44;4984090;28;20159;-69
2021/01/12 05:37:51;;;;;;;1.38;1.15;;;;;;;24.99;28.47;96299.53;4982683;28;20033;-70
2021/01/12 05:40:16;;;;;;;1.08;0.98;;;;;;;24.97;28.67;96296.13;4979081;28;20525;-70
2021/01/12 05:42:42;;;;;;;1.65;1.10;;;;;;;25.00;28.40;96295.09;4972014;28;20596;-70
2021/01/12 05:45:08;;;;;;;1.15;1.05;;;;;;;24.97;28.63;96285.66;4970595;28;20076;-70
2021/01/12 05:47:33;;;;;;;1.17;1.10;;;;;;;24.98;28.64;96291.75;4981541;28;20037;-71
2021/01/12 05:49:59;;;;;;;1.08;0.98;;;;;;;24.97;28.69;96290.88;4966159;28;20052;-70
2021/01/12 05:52:25;;;;;;;0.95;0.95;;;;;;;24.97;28.50;96280.41;4982416;28;20068;-68
2021/01/12 05:54:59;;;;;;;1.10;1.00;;;;;;;24.95;28.59;96271.81;4986333;28;20523;-70
2021/01/12 05:57:25;;;;;;;1.13;1.02;;;;;;;24.94;28.82;96259.59;5002461;28;20188;-71
2021/01/12 05:59:52;;;;;;;0.98;0.93;;;;;;;24.94;28.76;96264.84;4963524;28;20486;-69
2021/01/12 06:02:19;;;;;;;1.35;0.90;;;;;;;24.89;28.43;96249.41;4975216;28;20041;-69
2021/01/12 06:04:45;;;;;;;1.00;0.80;;;;;;;24.96;28.64;96252.50;4961886;28;20037;-69
2021/01/12 06:07:10;;;;;;;1.27;1.17;;;;;;;24.96;28.80;96255.13;4961821;28;20041;-71
2021/01/12 06:09:36;;;;;;;1.10;1.00;;;;;;;24.97;28.85;96251.56;4969449;28;20919;-71
2021/01/12 06:12:01;;;;;;;1.20;1.10;;;;;;;24.98;28.63;96255.88;4981339;28;20041;-71
2021/01/12 06:14:28;;;;;;;1.48;0.90;;;;;;;24.98;28.73;96252.44;4977265;28;20033;-71
2021/01/12 06:16:54;;;;;;;0.80;0.80;;;;;;;24.97;28.79;96248.94;4971036;28;20033;-71
2021/01/12 06:19:25;;;;;;;0.95;0.90;;;;;;;24.97;28.67;96248.94;4981094;28;20025;-71
2021/01/12 06:21:53;;;;;;;0.80;0.80;;;;;;;24.97;28.86;96248.94;4970702;28;20037;-71
2021/01/12 06:24:24;;;;;;;0.80;0.80;;;;;;;24.94;28.78;96243.88;4999787;28;20064;-69
2021/01/12 06:26:53;;;;;;;1.50;1.00;;;;;;;24.98;28.74;96249.81;4979195;28;20629;-71
2021/01/12 06:29:19;;;;;;;1.13;1.00;;;;;;;25.00;28.70;96247.94;4983604;28;20045;-71
2021/01/12 06:31:45;;;;;;;1.02;0.98;;;;;;;25.01;28.87;96244.38;4968942;28;20127;-71
2021/01/12 06:34:21;;;;;;;0.80;0.70;;;;;;;25.00;28.50;96240.91;4965555;28;20045;-71
2021/01/12 06:36:53;;;;;;;1.20;1.00;;;;;;;25.01;28.82;96228.63;4975157;28;20033;-71
2021/01/12 06:39:28;;;;;;;1.75;1.00;;;;;;;25.01;28.90;96232.09;4971080;28;20041;-71
2021/01/12 06:41:54;;;;;;;1.00;0.90;;;;;;;25.00;29.01;96225.19;5001610;28;20155;-72
2021/01/12 06:44:28;;;;;;;1.13;0.98;;;;;;;25.00;28.74;96217.31;4969950;28;20604;-71
2021/01/12 06:46:54;;;;;;;1.15;1.05;;;;;;;24.99;28.70;96209.53;4986198;28;20042;-69
2021/01/12 06:49:24;;;;;;;0.88;0.85;;;;;;;25.01;28.92;96208.53;4985263;28;20447;-71
2021/01/12 06:52:13;;;;;;;1.40;0.70;;;;;;;25.01;28.63;96213.75;4985458;28;20679;-71
2021/01/12 06:54:43;;;;;;;0.90;0.80;;;;;;;25.02;28.56;96204.13;4975078;28;20060;-70
2021/01/12 06:57:10;;;;;;;0.80;0.80;;;;;;;25.05;28.62;96206.56;4972498;28;20033;-71
2021/01/12 06:59:37;;;;;;;1.13;0.95;;;;;;;25.07;28.87;96196.84;4981876;28;20033;-71
2021/01/12 07:02:14;;;;;;;0.95;0.88;;;;;;;25.06;28.56;96189.91;4980026;28;20045;-70
2021/01/12 07:04:40;;;;;;;1.00;0.90;;;;;;;25.08;28.75;96200.28;5000950;28;20091;-70
2021/01/12 07:07:05;;;;;;;1.40;0.80;;;;;;;24.97;28.78;96183.41;4980328;28;20046;-70
2021/01/12 07:09:31;;;;;;;1.00;0.90;;;;;;;25.03;28.80;96183.06;4979846;28;20132;-70
2021/01/12 07:12:07;;;;;;;1.60;1.00;;;;;;;25.07;28.75;96188.13;4984798;28;20037;-70
2021/01/12 07:14:43;;;;;;;1.25;0.85;;;;;;;25.10;28.61;96201.03;4980503;28;20234;-70
2021/01/12 07:17:09;;;;;;;1.60;0.93;;;;;;;25.08;28.61;96187.16;4994039;28;20040;-71
2021/01/12 07:19:34;;;;;;;1.38;1.00;;;;;;;25.10;28.79;96186.16;4980491;28;20033;-70
2021/01/12 07:22:28;;;;;;;1.17;1.02;;;;;;;25.11;28.67;96184.38;4967346;28;20056;-71
2021/01/12 07:24:53;;;;;;;1.10;0.98;;;;;;;25.14;28.75;96181.56;4996856;28;20124;-71
2021/01/12 07:27:19;;;;;;;1.00;0.90;;;;;;;25.13;28.62;96169.41;4958431;28;20038;-72
2021/01/12 07:29:58;;;;;;;1.00;0.90;;;;;;;25.11;28.86;96171.25;4980915;28;20041;-71
2021/01/12 07:32:34;;;;;;;2.80;1.50;;;;;;;25.13;28.68;96164.16;4963506;28;20148;-71
2021/01/12 07:35:04;;;;;;;14.45;1.70;;;;;;;25.15;28.78;96162.28;4977894;28;20064;-70
2021/01/12 07:37:32;;;;;;;2.33;1.65;;;;;;;25.14;28.77;96160.59;4991208;28;20034;-71
2021/01/12 07:39:58;;;;;;;11.90;2.03;;;;;;;25.14;28.53;96157.97;4962363;28;20242;-72
2021/01/12 07:42:29;;;;;;;4.88;2.97;;;;;;;25.12;27.97;96151.97;4967354;28;20126;-70
2021/01/12 07:45:03;;;;;;;3.40;1.98;;;;;;;25.13;28.46;96153.69;4996535;28;20560;-71
2021/01/12 07:47:32;;;;;;;3.75;1.80;;;;;;;25.16;28.62;96156.09;4999098;28;20075;-70
2021/01/12 07:49:57;;;;;;;2.72;1.95;;;;;;;25.16;28.37;96148.22;4967674;28;20119;-71
2021/01/12 07:52:23;;;;;;;14.45;2.28;;;;;;;25.18;28.45;96146.38;4966246;28;20048;-71
2021/01/12 07:54:49;;;;;;;3.28;1.75;;;;;;;25.18;28.78;96138.50;4992709;28;20450;-71
2021/01/12 07:57:15;;;;;;;1.80;1.60;;;;;;;25.19;28.77;96137.56;4966062;28;20533;-71
2021/01/12 07:59:40;;;;;;;2.90;1.67;;;;;;;25.16;28.47;96132.50;4974624;28;20045;-70
2021/01/12 08:02:06;;;;;;;1.83;1.50;;;;;;;25.23;28.78;96133.81;4969702;28;20033;-71
2021/01/12 08:04:32;;;;;;;2.88;1.80;;;;;;;25.24;28.53;96134.69;4980710;28;20072;-71
2021/01/12 08:06:57;;;;;;;3.90;3.50;;;;;;;25.15;26.09;96141.31;4981116;28;20038;-71
2021/01/12 08:09:23;;;;;;;4.65;3.53;;;;;;;25.00;25.70;96138.69;4962687;28;20038;-70
2021/01/12 08:11:56;;;;;;;7.63;3.40;;;;;;;24.89;26.07;96143.72;4965129;28;20060;-70
2021/01/12 08:14:24;;;;;;;4.07;2.90;;;;;;;24.76;26.26;96133.97;4979456;28;20988;-71
2021/01/12 08:16:51;;;;;;;5.35;3.10;;;;;;;24.61;26.34;96121.75;5011165;28;20553;-71
2021/01/12 08:19:24;;;;;;;3.20;2.78;;;;;;;24.56;26.17;96126.41;4967513;28;20705;-70
2021/01/12 08:21:50;;;;;;;4.65;2.90;;;;;;;24.47;26.30;96123.41;4981773;28;20065;-69
2021/01/12 08:24:22;;;;;;;3.08;2.47;;;;;;;24.38;26.33;96121.31;4968382;28;20035;-71
2021/01/12 08:26:48;;;;;;;3.22;2.60;;;;;;;24.34;26.07;96130.28;4969731;28;20049;-71
2021/01/12 08:29:21;;;;;;;2.78;2.30;;;;;;;24.28;26.45;96126.22;4978475;28;20044;-71
2021/01/12 08:32:02;;;;;;;2.92;2.00;;;;;;;24.18;26.44;96115.44;4966252;28;20057;-71
2021/01/12 08:34:33;;;;;;;2.65;2.00;;;;;;;24.18;26.66;96120.69;4972396;28;20089;-72
2021/01/12 08:36:59;;;;;;;2.20;2.00;;;;;;;24.15;26.57;96118.25;4981253;28;20580;-70
2021/01/12 08:39:24;;;;;;;2.08;1.92;;;;;;;24.07;27.13;96107.34;4964792;28;20128;-70
2021/01/12 08:41:50;;;;;;;1.85;1.60;;;;;;;24.31;28.75;96125.22;4975836;28;20041;-70
2021/01/12 08:44:15;;;;;;;2.22;1.77;;;;;;;24.40;28.56;96117.69;4963445;28;20075;-69
2021/01/12 08:46:41;;;;;;;1.98;1.50;;;;;;;24.49;28.63;96121.53;4981612;28;21002;-70
2021/01/12 08:49:10;;;;;;;2.05;1.60;;;;;;;24.50;28.67;96115.38;4984054;28;20891;-71
2021/01/12 08:51:36;;;;;;;3.15;1.50;;;;;;;24.62;28.74;96123.44;4986798;28;20040;-71
2021/01/12 08:54:02;;;;;;;2.47;1.40;;;;;;;24.68;28.67;96115.22;4981581;28;20102;-71
2021/01/12 08:56:30;;;;;;;2.17;1.30;;;;;;;24.71;28.82;96111.56;4968522;28;20037;-70
2021/01/12 08:59:08;;;;;;;1.70;1.48;;;;;;;24.77;28.87;96119.91;4983722;28;20415;-70
2021/01/12 09:01:37;;;;;;;1.77;1.48;;;;;;;24.80;28.97;96117.09;4980042;28;20037;-71
2021/01/12 09:04:09;;;;;;;2.10;1.63;;;;;;;24.86;29.24;96120.34;4981731;28;20246;-71
2021/01/12 09:06:35;;;;;;;2.85;1.60;;;;;;;24.85;28.91;96116.00;4992134;28;20041;-70
2021/01/12 09:09:13;;;;;;;2.95;1.10;;;;;;;24.91;28.95;96118.28;4963319;28;20470;-70
2021/01/12 09:11:46;;;;;;;1.23;1.08;;;;;;;24.94;28.82;96115.44;4981912;28;20139;-70
2021/01/12 09:14:13;;;;;;;2.95;1.30;;;;;;;24.97;28.86;96112.66;4976941;28;20462;-70
2021/01/12 09:16:39;;;;;;;1.85;1.27;;;;;;;25.02;28.90;96110.59;4967569;28;20025;-70
2021/01/12 09:19:15;;;;;;;1.88;1.45;;;;;;;25.02;28.78;96115.81;4982652;28;20040;-71
2021/01/12 09:21:41;;;;;;;15.88;1.70;;;;;;;25.01;27.98;96115.91;4979178;28;20030;-70
2021/01/12 09:24:07;;;;;;;8.65;1.52;;;;;;;25.01;29.36;96108.91;4965458;28;20124;-70
2021/01/12 09:26:34;;;;;;;2.28;1.25;;;;;;;24.90;28.88;96091.22;4994319;28;20060;-70
2021/01/12 09:29:00;;;;;;;3.00;1.30;;;;;;;24.98;29.21;96101.22;4969805;28;20076;-70
2021/01/12 09:31:26;;;;;;;4.63;1.30;;;;;;;24.98;28.89;96101.22;4960590;28;20044;-71
2021/01/12 09:33:55;;;;;;;3.60;1.38;;;;;;;24.99;28.95;96095.06;4964839;28;20040;-70
2021/01/12 09:36:20;;;;;;;5.30;1.40;;;;;;;24.94;28.97;96083.16;4968225;28;20068;-70
2021/01/12 09:39:13;;;;;;;2.85;1.25;;;;;;;25.01;29.05;96103.66;4967222;28;20064;-70
2021/01/12 09:41:39;;;;;;;3.45;1.35;;;;;;;25.04;29.06;96100.00;4983147;28;20037;-70
2021/01/12 09:44:05;;;;;;;10.85;1.88;;;;;;;25.02;28.21;96100.09;4982739;28;20111;-70
2021/01/12 09:46:31;;;;;;;1.95;1.20;;;;;;;25.10;28.87;96101.41;4976655;28;20143;-70
2021/01/12 09:48:57;;;;;;;1.70;1.25;;;;;;;25.07;28.96;96102.47;5002095;28;20499;-70
2021/01/12 09:51:24;;;;;;;2.83;1.25;;;;;;;25.08;29.04;96105.91;4991842;28;20025;-70
2021/01/12 09:53:49;;;;;;;6.18;1.10;;;;;;;25.08;28.98;96095.41;5017493;28;20064;-70
2021/01/12 09:56:16;;;;;;;2.85;1.17;;;;;;;25.06;28.92;96100.78;4996175;28;20049;-71
2021/01/12 09:58:42;;;;;;;2.33;1.15;;;;;;;25.08;29.14;96103.28;5009061;28;20089;-71
2021/01/12 10:01:08;;;;;;;6.30;1.50;;;;;;;25.10;29.56;96090.94;5004644;28;20036;-71
2021/01/12 10:03:33;;;;;;;3.83;1.65;;;;;;;25.11;29.58;96095.22;5007412;28;20021;-71
2021/01/12 10:06:05;;;;;;;5.65;1.60;;;;;;;25.17;29.53;96087.84;5001363;28;20278;-71
2021/01/12 10:08:33;;;;;;;;;;;;;;;25.18;29.52;96093.94;4998171;28;20099;-72
2021/01/12 10:11:04;;;;;;;6.43;1.60;;;;;;;25.22;29.65;96084.94;4999642;28;19913;-72
2021/01/12 10:13:34;;;;;;;7.32;1.50;;;;;;;25.23;29.43;96077.91;5000320;28;20446;-71
2021/01/12 10:15:59;;;;;;;5.35;1.45;;;;;;;25.19;31.86;96079.88;4977827;28;20041;-75
2021/01/12 10:18:25;;;;;;;3.60;1.30;;;;;;;25.14;31.67;96076.72;4980825;28;20067;-74
2021/01/12 10:20:54;;;;;;;8.18;1.67;;;;;;;25.09;30.21;96065.66;4983662;28;20059;-76
2021/01/12 10:23:20;;;;;;;4.03;1.60;;;;;;;25.10;30.28;96068.19;4977987;28;20045;-68
2021/01/12 10:25:55;;;;;;;4.97;1.20;;;;;;;24.80;25.39;96063.84;4980263;28;20516;-72
2021/01/12 10:28:21;;;;;;;3.13;1.00;;;;;;;24.39;24.54;96057.53;4977322;28;20080;-71
2021/01/12 10:30:47;;;;;;;1.30;0.77;;;;;;;23.97;23.33;96050.28;4976060;28;20038;-72
2021/01/12 10:33:15;;;;;;;3.30;0.50;;;;;;;23.56;23.24;96036.00;4977054;28;20048;-71
2021/01/12 10:35:48;;;;;;;2.08;0.77;;;;;;;23.23;23.21;96055.22;4979009;28;20029;-72
2021/01/12 10:38:24;;;;;;;2.13;0.60;;;;;;;22.88;23.85;96050.13;4979724;28;20095;-70
2021/01/12 10:40:53;;;;;;;3.63;0.50;;;;;;;22.52;23.87;96057.13;4999918;28;20084;-70
2021/01/12 10:43:26;;;;;;;1.33;0.50;;;;;;;22.21;23.75;96050.84;4964505;28;20613;-71
2021/01/12 10:45:52;;;;;;;1.35;0.60;;;;;;;22.06;23.97;96051.56;4991467;28;20254;-72
2021/01/12 10:48:20;;;;;;;2.50;0.50;;;;;;;22.28;25.45;96052.25;4977202;28;20049;-72
2021/01/12 10:50:54;;;;;;;2.60;0.70;;;;;;;22.49;27.54;96045.06;4977790;28;20088;-72
2021/01/12 10:53:24;;;;;;;1.85;0.65;;;;;;;22.71;28.36;96030.94;5017401;28;20029;-71
2021/01/12 10:55:50;;;;;;;8.48;0.73;;;;;;;22.90;28.50;96027.34;4969141;28;20065;-72
2021/01/12 10:58:16;;;;;;;3.25;0.60;;;;;;;23.08;29.23;96022.91;4966779;28;20033;-72
2021/01/12 11:00:41;;;;;;;3.63;0.90;;;;;;;23.25;28.70;96015.94;4963464;28;20029;-72
2021/01/12 11:03:13;;;;;;;2.03;0.70;;;;;;;23.45;28.54;96007.84;4968274;28;20041;-71
2021/01/12 11:05:39;;;;;;;2.90;0.93;;;;;;;23.59;28.54;96008.84;4985201;28;20046;-72
2021/01/12 11:08:09;;;;;;;2.42;0.70;;;;;;;23.73;28.43;96001.06;4973775;28;20044;-72
2021/01/12 11:10:35;;;;;;;2.80;0.77;;;;;;;23.85;28.50;96004.75;4977884;28;20877;-72
2021/01/12 11:13:04;;;;;;;1.77;0.80;;;;;;;23.91;29.31;96008.75;4980229;28;20071;-72
2021/01/12 11:15:30;;;;;;;3.03;0.85;;;;;;;23.97;28.60;95992.72;4958444;28;20454;-73
2021/01/12 11:17:59;;;;;;;6.18;0.98;;;;;;;24.02;28.32;95987.19;4964776;28;20040;-73
2021/01/12 11:20:25;;;;;;;5.90;1.00;;;;;;;24.08;28.30;95983.38;4981587;28;20144;-72
2021/01/12 11:22:50;;;;;;;3.50;1.20;;;;;;;24.13;28.59;95982.22;4963301;28;20540;-73
2021/01/12 11:25:22;;;;;;;2.78;1.05;;;;;;;24.15;28.70;95969.03;4965585;28;20824;-73
2021/01/12 11:27:47;;;;;;;7.30;1.13;;;;;;;24.24;28.32;95971.13;4997604;28;20251;-72
2021/01/12 11:30:13;;;;;;;5.38;1.08;;;;;;;24.37;28.35;95970.38;4968128;28;20029;-72
2021/01/12 11:32:41;;;;;;;3.70;1.23;;;;;;;24.46;28.57;95966.34;4979519;28;20037;-72
2021/01/12 11:35:10;;;;;;;2.15;1.02;;;;;;;24.47;28.45;95963.63;4980673;28;20060;-73
2021/01/12 11:37:35;;;;;;;2.65;0.88;;;;;;;24.47;28.52;95955.78;4979930;28;20099;-73
2021/01/12 11:40:07;;;;;;;4.32;1.10;;;;;;;24.59;28.59;95963.84;4982404;28;20053;-73